sensor_id;sensor_type;location;lat;lon;timestamp;P1;durP1;ratioP1;P2;durP2;ratioP2
55423;SDS011;41294;42.666;23.350;2022-08-19T00:02:25;13.40;;;5.63;;
55423;SDS011;41294;42.666;23.350;2022-08-19T00:04:50;6.82;;;5.95;;
55423;SDS011;41294;42.666;23.350;2022-08-19T00:07:20;6.13;;;5.53;;
55423;SDS011;41294;42.666;23.350;2022-08-19T00:09:46;7.78;;;6.00;;
55423;SDS011;41294;42.666;23.350;2022-08-19T00:12:12;8.40;;;6.15;;
55423;SDS011;41294;42.666;23.350;2022-08-19T00:14:37;8.13;;;5.50;;
55423;SDS011;41294;42.666;23.350;2022-08-19T00:17:04;6.95;;;5.70;;
55423;SDS011;41294;42.666;23.350;2022-08-19T00:19:32;6.63;;;5.97;;
55423;SDS011;41294;42.666;23.350;2022-08-19T00:21:58;9.60;;;5.93;;
55423;SDS011;41294;42.666;23.350;2022-08-19T00:24:24;7.93;;;5.90;;
55423;SDS011;41294;42.666;23.350;2022-08-19T00:26:50;9.82;;;5.70;;
55423;SDS011;41294;42.666;23.350;2022-08-19T00:29:17;11.88;;;6.05;;
55423;SDS011;41294;42.666;23.350;2022-08-19T00:31:44;6.97;;;6.10;;
55423;SDS011;41294;42.666;23.350;2022-08-19T00:34:11;7.03;;;6.25;;
55423;SDS011;41294;42.666;23.350;2022-08-19T00:36:38;9.63;;;5.63;;
55423;SDS011;41294;42.666;23.350;2022-08-19T00:39:04;6.97;;;6.05;;
55423;SDS011;41294;42.666;23.350;2022-08-19T00:41:30;8.20;;;6.03;;
55423;SDS011;41294;42.666;23.350;2022-08-19T00:46:24;9.15;;;5.93;;
55423;SDS011;41294;42.666;23.350;2022-08-19T00:48:49;10.75;;;6.05;;
55423;SDS011;41294;42.666;23.350;2022-08-19T00:51:15;6.50;;;5.90;;
55423;SDS011;41294;42.666;23.350;2022-08-19T00:53:41;6.68;;;5.80;;
55423;SDS011;41294;42.666;23.350;2022-08-19T00:56:07;7.20;;;6.13;;
55423;SDS011;41294;42.666;23.350;2022-08-19T00:58:34;7.22;;;5.95;;
55423;SDS011;41294;42.666;23.350;2022-08-19T01:01:01;9.82;;;5.75;;
55423;SDS011;41294;42.666;23.350;2022-08-19T01:03:28;7.45;;;6.53;;
55423;SDS011;41294;42.666;23.350;2022-08-19T01:05:54;6.05;;;5.35;;
55423;SDS011;41294;42.666;23.350;2022-08-19T01:08:20;7.35;;;5.95;;
55423;SDS011;41294;42.666;23.350;2022-08-19T01:10:50;7.43;;;6.40;;
55423;SDS011;41294;42.666;23.350;2022-08-19T01:13:19;9.00;;;6.18;;
55423;SDS011;41294;42.666;23.350;2022-08-19T01:15:47;8.38;;;6.10;;
55423;SDS011;41294;42.666;23.350;2022-08-19T01:18:17;8.13;;;6.32;;
55423;SDS011;41294;42.666;23.350;2022-08-19T01:20:44;8.07;;;7.20;;
55423;SDS011;41294;42.666;23.350;2022-08-19T01:23:10;6.60;;;5.93;;
55423;SDS011;41294;42.666;23.350;2022-08-19T01:25:50;8.05;;;6.28;;
55423;SDS011;41294;42.666;23.350;2022-08-19T01:28:23;9.82;;;6.43;;
55423;SDS011;41294;42.666;23.350;2022-08-19T01:30:51;8.57;;;6.22;;
55423;SDS011;41294;42.666;23.350;2022-08-19T01:33:18;8.15;;;6.43;;
55423;SDS011;41294;42.666;23.350;2022-08-19T01:35:44;9.63;;;6.63;;
55423;SDS011;41294;42.666;23.350;2022-08-19T01:38:18;8.07;;;6.68;;
55423;SDS011;41294;42.666;23.350;2022-08-19T01:40:47;8.00;;;6.18;;
55423;SDS011;41294;42.666;23.350;2022-08-19T01:43:12;7.07;;;6.47;;
55423;SDS011;41294;42.666;23.350;2022-08-19T01:45:38;8.23;;;6.55;;
55423;SDS011;41294;42.666;23.350;2022-08-19T01:48:05;7.97;;;6.63;;
55423;SDS011;41294;42.666;23.350;2022-08-19T01:50:32;7.28;;;6.10;;
55423;SDS011;41294;42.666;23.350;2022-08-19T01:52:58;7.32;;;6.63;;
55423;SDS011;41294;42.666;23.350;2022-08-19T01:55:25;8.23;;;6.72;;
55423;SDS011;41294;42.666;23.350;2022-08-19T01:57:52;6.88;;;6.25;;
55423;SDS011;41294;42.666;23.350;2022-08-19T02:00:23;7.32;;;6.63;;
55423;SDS011;41294;42.666;23.350;2022-08-19T02:02:50;7.43;;;6.75;;
55423;SDS011;41294;42.666;23.350;2022-08-19T02:05:16;9.05;;;6.53;;
55423;SDS011;41294;42.666;23.350;2022-08-19T02:07:43;8.45;;;6.30;;
55423;SDS011;41294;42.666;23.350;2022-08-19T02:10:12;11.32;;;6.75;;
55423;SDS011;41294;42.666;23.350;2022-08-19T02:12:40;8.57;;;6.80;;
55423;SDS011;41294;42.666;23.350;2022-08-19T02:15:06;9.35;;;7.03;;
55423;SDS011;41294;42.666;23.350;2022-08-19T02:17:32;7.50;;;6.55;;
55423;SDS011;41294;42.666;23.350;2022-08-19T02:19:57;9.43;;;6.95;;
55423;SDS011;41294;42.666;23.350;2022-08-19T02:22:24;9.40;;;7.40;;
55423;SDS011;41294;42.666;23.350;2022-08-19T02:24:50;16.92;;;8.05;;
55423;SDS011;41294;42.666;23.350;2022-08-19T02:27:17;9.25;;;7.65;;
55423;SDS011;41294;42.666;23.350;2022-08-19T02:29:42;12.85;;;6.75;;
55423;SDS011;41294;42.666;23.350;2022-08-19T02:32:08;10.05;;;7.35;;
55423;SDS011;41294;42.666;23.350;2022-08-19T02:34:33;10.77;;;6.63;;
55423;SDS011;41294;42.666;23.350;2022-08-19T02:36:59;8.05;;;6.80;;
55423;SDS011;41294;42.666;23.350;2022-08-19T02:39:25;8.35;;;7.43;;
55423;SDS011;41294;42.666;23.350;2022-08-19T02:41:51;7.53;;;6.82;;
55423;SDS011;41294;42.666;23.350;2022-08-19T02:44:17;9.95;;;7.00;;
55423;SDS011;41294;42.666;23.350;2022-08-19T02:46:42;8.10;;;6.55;;
55423;SDS011;41294;42.666;23.350;2022-08-19T02:49:10;7.32;;;6.60;;
55423;SDS011;41294;42.666;23.350;2022-08-19T02:51:36;9.38;;;6.97;;
55423;SDS011;41294;42.666;23.350;2022-08-19T02:54:04;7.38;;;6.68;;
55423;SDS011;41294;42.666;23.350;2022-08-19T02:56:31;8.57;;;7.05;;
55423;SDS011;41294;42.666;23.350;2022-08-19T02:58:59;7.97;;;7.20;;
55423;SDS011;41294;42.666;23.350;2022-08-19T03:01:26;12.93;;;6.90;;
55423;SDS011;41294;42.666;23.350;2022-08-19T03:03:54;8.85;;;6.93;;
55423;SDS011;41294;42.666;23.350;2022-08-19T03:06:20;8.98;;;6.80;;
55423;SDS011;41294;42.666;23.350;2022-08-19T03:08:47;8.27;;;7.05;;
55423;SDS011;41294;42.666;23.350;2022-08-19T03:11:15;8.00;;;7.20;;
55423;SDS011;41294;42.666;23.350;2022-08-19T03:13:52;8.68;;;7.22;;
55423;SDS011;41294;42.666;23.350;2022-08-19T03:16:19;9.35;;;7.25;;
55423;SDS011;41294;42.666;23.350;2022-08-19T03:18:47;8.88;;;7.47;;
55423;SDS011;41294;42.666;23.350;2022-08-19T03:21:23;9.85;;;7.05;;
55423;SDS011;41294;42.666;23.350;2022-08-19T03:23:54;9.35;;;7.20;;
55423;SDS011;41294;42.666;23.350;2022-08-19T03:26:23;7.78;;;6.97;;
55423;SDS011;41294;42.666;23.350;2022-08-19T03:28:49;8.20;;;7.18;;
55423;SDS011;41294;42.666;23.350;2022-08-19T03:31:16;8.45;;;7.25;;
55423;SDS011;41294;42.666;23.350;2022-08-19T03:33:43;12.10;;;7.55;;
55423;SDS011;41294;42.666;23.350;2022-08-19T03:38:43;10.40;;;7.25;;
55423;SDS011;41294;42.666;23.350;2022-08-19T03:41:15;9.13;;;7.80;;
55423;SDS011;41294;42.666;23.350;2022-08-19T03:43:42;9.45;;;7.55;;
55423;SDS011;41294;42.666;23.350;2022-08-19T03:46:13;8.63;;;7.72;;
55423;SDS011;41294;42.666;23.350;2022-08-19T03:48:41;9.38;;;7.35;;
55423;SDS011;41294;42.666;23.350;2022-08-19T03:51:14;7.53;;;6.82;;
55423;SDS011;41294;42.666;23.350;2022-08-19T03:53:41;9.73;;;7.75;;
55423;SDS011;41294;42.666;23.350;2022-08-19T03:56:08;8.80;;;7.18;;
55423;SDS011;41294;42.666;23.350;2022-08-19T03:58:35;9.20;;;7.05;;
55423;SDS011;41294;42.666;23.350;2022-08-19T04:01:02;10.32;;;6.88;;
55423;SDS011;41294;42.666;23.350;2022-08-19T04:03:36;9.00;;;6.90;;
55423;SDS011;41294;42.666;23.350;2022-08-19T04:06:12;7.30;;;6.10;;
55423;SDS011;41294;42.666;23.350;2022-08-19T04:08:40;7.10;;;6.30;;
55423;SDS011;41294;42.666;23.350;2022-08-19T04:11:08;10.10;;;6.43;;
55423;SDS011;41294;42.666;23.350;2022-08-19T04:13:35;6.88;;;6.25;;
55423;SDS011;41294;42.666;23.350;2022-08-19T04:16:00;10.93;;;7.47;;
55423;SDS011;41294;42.666;23.350;2022-08-19T04:18:26;10.65;;;6.05;;
55423;SDS011;41294;42.666;23.350;2022-08-19T04:20:54;9.88;;;6.60;;
55423;SDS011;41294;42.666;23.350;2022-08-19T04:23:20;12.23;;;6.88;;
55423;SDS011;41294;42.666;23.350;2022-08-19T04:25:45;11.05;;;7.30;;
55423;SDS011;41294;42.666;23.350;2022-08-19T04:28:11;10.93;;;6.82;;
55423;SDS011;41294;42.666;23.350;2022-08-19T04:30:38;8.77;;;6.65;;
55423;SDS011;41294;42.666;23.350;2022-08-19T04:33:05;8.23;;;6.15;;
55423;SDS011;41294;42.666;23.350;2022-08-19T04:35:37;11.52;;;6.68;;
55423;SDS011;41294;42.666;23.350;2022-08-19T04:38:05;10.40;;;6.75;;
55423;SDS011;41294;42.666;23.350;2022-08-19T04:40:31;10.93;;;6.53;;
55423;SDS011;41294;42.666;23.350;2022-08-19T04:43:15;12.55;;;7.82;;
55423;SDS011;41294;42.666;23.350;2022-08-19T04:45:42;11.45;;;10.02;;
55423;SDS011;41294;42.666;23.350;2022-08-19T04:48:08;16.02;;;9.73;;
55423;SDS011;41294;42.666;23.350;2022-08-19T04:50:34;15.15;;;9.95;;
55423;SDS011;41294;42.666;23.350;2022-08-19T04:53:00;16.20;;;9.98;;
55423;SDS011;41294;42.666;23.350;2022-08-19T04:55:26;8.48;;;7.43;;
55423;SDS011;41294;42.666;23.350;2022-08-19T04:57:51;17.38;;;8.25;;
55423;SDS011;41294;42.666;23.350;2022-08-19T05:00:17;9.27;;;7.38;;
55423;SDS011;41294;42.666;23.350;2022-08-19T05:02:43;10.00;;;6.43;;
55423;SDS011;41294;42.666;23.350;2022-08-19T05:05:08;11.73;;;7.05;;
55423;SDS011;41294;42.666;23.350;2022-08-19T05:07:34;8.85;;;7.22;;
55423;SDS011;41294;42.666;23.350;2022-08-19T05:10:00;12.27;;;7.15;;
55423;SDS011;41294;42.666;23.350;2022-08-19T05:12:26;10.18;;;6.72;;
55423;SDS011;41294;42.666;23.350;2022-08-19T05:14:53;11.00;;;7.05;;
55423;SDS011;41294;42.666;23.350;2022-08-19T05:17:19;14.60;;;6.75;;
55423;SDS011;41294;42.666;23.350;2022-08-19T05:19:45;12.55;;;6.95;;
55423;SDS011;41294;42.666;23.350;2022-08-19T05:22:28;8.88;;;7.40;;
55423;SDS011;41294;42.666;23.350;2022-08-19T05:24:57;10.40;;;7.50;;
55423;SDS011;41294;42.666;23.350;2022-08-19T05:27:23;10.25;;;7.13;;
55423;SDS011;41294;42.666;23.350;2022-08-19T05:29:49;10.85;;;7.57;;
55423;SDS011;41294;42.666;23.350;2022-08-19T05:32:14;9.43;;;6.97;;
55423;SDS011;41294;42.666;23.350;2022-08-19T05:34:40;9.82;;;6.43;;
55423;SDS011;41294;42.666;23.350;2022-08-19T05:37:05;15.50;;;7.20;;
55423;SDS011;41294;42.666;23.350;2022-08-19T05:39:33;9.27;;;6.97;;
55423;SDS011;41294;42.666;23.350;2022-08-19T05:42:01;8.13;;;6.22;;
55423;SDS011;41294;42.666;23.350;2022-08-19T05:44:33;9.20;;;6.22;;
55423;SDS011;41294;42.666;23.350;2022-08-19T05:47:00;10.23;;;6.35;;
55423;SDS011;41294;42.666;23.350;2022-08-19T05:49:28;10.43;;;6.38;;
55423;SDS011;41294;42.666;23.350;2022-08-19T05:51:54;7.93;;;5.68;;
55423;SDS011;41294;42.666;23.350;2022-08-19T05:54:21;8.38;;;6.20;;
55423;SDS011;41294;42.666;23.350;2022-08-19T05:56:48;9.88;;;5.70;;
55423;SDS011;41294;42.666;23.350;2022-08-19T05:59:15;11.60;;;6.25;;
55423;SDS011;41294;42.666;23.350;2022-08-19T06:01:42;10.45;;;6.43;;
55423;SDS011;41294;42.666;23.350;2022-08-19T06:04:10;8.80;;;5.95;;
55423;SDS011;41294;42.666;23.350;2022-08-19T06:06:38;13.57;;;6.60;;
55423;SDS011;41294;42.666;23.350;2022-08-19T06:09:05;11.55;;;6.55;;
55423;SDS011;41294;42.666;23.350;2022-08-19T06:11:37;8.68;;;5.78;;
55423;SDS011;41294;42.666;23.350;2022-08-19T06:14:25;10.82;;;6.25;;
55423;SDS011;41294;42.666;23.350;2022-08-19T06:16:53;10.57;;;5.88;;
55423;SDS011;41294;42.666;23.350;2022-08-19T06:19:20;10.35;;;7.03;;
55423;SDS011;41294;42.666;23.350;2022-08-19T06:21:49;7.72;;;6.82;;
55423;SDS011;41294;42.666;23.350;2022-08-19T06:24:18;8.07;;;6.63;;
55423;SDS011;41294;42.666;23.350;2022-08-19T06:26:47;12.98;;;6.28;;
55423;SDS011;41294;42.666;23.350;2022-08-19T06:29:14;8.68;;;6.15;;
55423;SDS011;41294;42.666;23.350;2022-08-19T06:31:44;14.85;;;6.90;;
55423;SDS011;41294;42.666;23.350;2022-08-19T06:34:14;10.05;;;6.13;;
55423;SDS011;41294;42.666;23.350;2022-08-19T06:36:42;7.43;;;6.32;;
55423;SDS011;41294;42.666;23.350;2022-08-19T06:39:11;11.75;;;7.03;;
55423;SDS011;41294;42.666;23.350;2022-08-19T06:41:48;9.27;;;6.88;;
55423;SDS011;41294;42.666;23.350;2022-08-19T06:44:15;9.95;;;5.90;;
55423;SDS011;41294;42.666;23.350;2022-08-19T06:46:40;11.43;;;6.05;;
55423;SDS011;41294;42.666;23.350;2022-08-19T06:49:06;13.68;;;7.10;;
55423;SDS011;41294;42.666;23.350;2022-08-19T06:51:35;9.50;;;7.07;;
55423;SDS011;41294;42.666;23.350;2022-08-19T06:54:01;12.75;;;7.55;;
55423;SDS011;41294;42.666;23.350;2022-08-19T06:56:28;12.57;;;7.18;;
55423;SDS011;41294;42.666;23.350;2022-08-19T06:58:59;7.57;;;6.28;;
55423;SDS011;41294;42.666;23.350;2022-08-19T07:01:45;11.15;;;7.18;;
55423;SDS011;41294;42.666;23.350;2022-08-19T07:04:16;15.30;;;7.32;;
55423;SDS011;41294;42.666;23.350;2022-08-19T07:06:45;9.25;;;6.65;;
55423;SDS011;41294;42.666;23.350;2022-08-19T07:09:12;11.93;;;7.07;;
55423;SDS011;41294;42.666;23.350;2022-08-19T07:11:43;11.23;;;6.80;;
55423;SDS011;41294;42.666;23.350;2022-08-19T07:14:14;10.73;;;6.80;;
55423;SDS011;41294;42.666;23.350;2022-08-19T07:16:43;9.35;;;7.38;;
55423;SDS011;41294;42.666;23.350;2022-08-19T07:19:10;10.27;;;6.63;;
55423;SDS011;41294;42.666;23.350;2022-08-19T07:21:36;12.35;;;7.07;;
55423;SDS011;41294;42.666;23.350;2022-08-19T07:24:02;9.60;;;6.80;;
55423;SDS011;41294;42.666;23.350;2022-08-19T07:26:30;14.60;;;6.97;;
55423;SDS011;41294;42.666;23.350;2022-08-19T07:28:58;6.70;;;5.88;;
55423;SDS011;41294;42.666;23.350;2022-08-19T07:31:26;17.55;;;7.55;;
55423;SDS011;41294;42.666;23.350;2022-08-19T07:33:53;14.30;;;7.72;;
55423;SDS011;41294;42.666;23.350;2022-08-19T07:36:27;9.70;;;7.55;;
55423;SDS011;41294;42.666;23.350;2022-08-19T07:38:57;11.02;;;6.68;;
55423;SDS011;41294;42.666;23.350;2022-08-19T07:41:24;12.38;;;7.15;;
55423;SDS011;41294;42.666;23.350;2022-08-19T07:43:53;6.82;;;6.10;;
55423;SDS011;41294;42.666;23.350;2022-08-19T07:46:19;11.45;;;6.63;;
55423;SDS011;41294;42.666;23.350;2022-08-19T07:48:48;9.98;;;6.82;;
55423;SDS011;41294;42.666;23.350;2022-08-19T07:51:17;11.52;;;7.05;;
55423;SDS011;41294;42.666;23.350;2022-08-19T07:53:45;9.88;;;6.78;;
55423;SDS011;41294;42.666;23.350;2022-08-19T07:56:12;10.32;;;6.07;;
55423;SDS011;41294;42.666;23.350;2022-08-19T07:58:39;9.80;;;6.00;;
55423;SDS011;41294;42.666;23.350;2022-08-19T08:01:07;8.77;;;6.00;;
55423;SDS011;41294;42.666;23.350;2022-08-19T08:03:35;11.68;;;7.07;;
55423;SDS011;41294;42.666;23.350;2022-08-19T08:06:20;8.52;;;6.10;;
55423;SDS011;41294;42.666;23.350;2022-08-19T08:09:04;8.90;;;5.80;;
55423;SDS011;41294;42.666;23.350;2022-08-19T08:11:35;8.85;;;5.80;;
55423;SDS011;41294;42.666;23.350;2022-08-19T08:14:02;7.97;;;5.50;;
55423;SDS011;41294;42.666;23.350;2022-08-19T08:16:28;8.93;;;5.85;;
55423;SDS011;41294;42.666;23.350;2022-08-19T08:18:56;9.70;;;6.13;;
55423;SDS011;41294;42.666;23.350;2022-08-19T08:21:21;6.93;;;5.53;;
55423;SDS011;41294;42.666;23.350;2022-08-19T08:23:47;10.18;;;5.40;;
55423;SDS011;41294;42.666;23.350;2022-08-19T08:26:12;5.75;;;4.85;;
55423;SDS011;41294;42.666;23.350;2022-08-19T08:28:39;8.95;;;5.88;;
55423;SDS011;41294;42.666;23.350;2022-08-19T08:31:04;6.97;;;5.90;;
55423;SDS011;41294;42.666;23.350;2022-08-19T08:33:30;7.95;;;4.97;;
55423;SDS011;41294;42.666;23.350;2022-08-19T08:35:56;8.25;;;5.95;;
55423;SDS011;41294;42.666;23.350;2022-08-19T08:38:21;11.02;;;5.40;;
55423;SDS011;41294;42.666;23.350;2022-08-19T08:40:48;7.47;;;6.07;;
55423;SDS011;41294;42.666;23.350;2022-08-19T08:43:28;7.53;;;5.47;;
55423;SDS011;41294;42.666;23.350;2022-08-19T08:46:11;9.02;;;5.82;;
55423;SDS011;41294;42.666;23.350;2022-08-19T08:48:59;9.20;;;5.65;;
55423;SDS011;41294;42.666;23.350;2022-08-19T08:51:44;11.38;;;6.20;;
55423;SDS011;41294;42.666;23.350;2022-08-19T08:54:20;10.77;;;5.63;;
55423;SDS011;41294;42.666;23.350;2022-08-19T08:56:51;8.43;;;5.60;;
55423;SDS011;41294;42.666;23.350;2022-08-19T08:59:26;12.20;;;5.85;;
55423;SDS011;41294;42.666;23.350;2022-08-19T09:01:56;8.85;;;5.50;;
55423;SDS011;41294;42.666;23.350;2022-08-19T09:04:21;10.48;;;5.43;;
55423;SDS011;41294;42.666;23.350;2022-08-19T09:09:37;6.85;;;4.75;;
55423;SDS011;41294;42.666;23.350;2022-08-19T09:14:47;5.43;;;4.22;;
55423;SDS011;41294;42.666;23.350;2022-08-19T09:17:29;4.35;;;3.95;;
55423;SDS011;41294;42.666;23.350;2022-08-19T09:19:58;4.22;;;3.80;;
55423;SDS011;41294;42.666;23.350;2022-08-19T09:22:33;5.35;;;4.28;;
55423;SDS011;41294;42.666;23.350;2022-08-19T09:24:59;6.35;;;4.15;;
55423;SDS011;41294;42.666;23.350;2022-08-19T09:27:25;6.85;;;4.68;;
55423;SDS011;41294;42.666;23.350;2022-08-19T09:29:52;5.90;;;3.92;;
55423;SDS011;41294;42.666;23.350;2022-08-19T09:32:18;6.13;;;3.72;;
55423;SDS011;41294;42.666;23.350;2022-08-19T09:34:45;5.07;;;4.38;;
55423;SDS011;41294;42.666;23.350;2022-08-19T09:37:10;7.07;;;3.80;;
55423;SDS011;41294;42.666;23.350;2022-08-19T09:39:37;5.40;;;4.05;;
55423;SDS011;41294;42.666;23.350;2022-08-19T09:42:05;4.70;;;4.05;;
55423;SDS011;41294;42.666;23.350;2022-08-19T09:44:36;4.10;;;3.60;;
55423;SDS011;41294;42.666;23.350;2022-08-19T09:47:02;5.13;;;3.50;;
55423;SDS011;41294;42.666;23.350;2022-08-19T09:49:30;4.88;;;3.40;;
55423;SDS011;41294;42.666;23.350;2022-08-19T09:51:56;4.93;;;3.80;;
55423;SDS011;41294;42.666;23.350;2022-08-19T09:54:21;8.85;;;3.38;;
55423;SDS011;41294;42.666;23.350;2022-08-19T09:56:47;4.15;;;3.40;;
55423;SDS011;41294;42.666;23.350;2022-08-19T09:59:12;5.00;;;3.17;;
55423;SDS011;41294;42.666;23.350;2022-08-19T10:01:38;6.07;;;3.38;;
55423;SDS011;41294;42.666;23.350;2022-08-19T10:04:04;5.55;;;3.65;;
55423;SDS011;41294;42.666;23.350;2022-08-19T10:06:33;5.53;;;3.60;;
55423;SDS011;41294;42.666;23.350;2022-08-19T10:09:00;6.20;;;3.20;;
55423;SDS011;41294;42.666;23.350;2022-08-19T10:11:29;5.28;;;3.67;;
55423;SDS011;41294;42.666;23.350;2022-08-19T10:13:55;4.30;;;3.53;;
55423;SDS011;41294;42.666;23.350;2022-08-19T10:16:21;4.50;;;3.65;;
55423;SDS011;41294;42.666;23.350;2022-08-19T10:18:48;7.50;;;4.00;;
55423;SDS011;41294;42.666;23.350;2022-08-19T10:21:24;4.68;;;3.70;;
55423;SDS011;41294;42.666;23.350;2022-08-19T10:23:52;4.20;;;3.80;;
55423;SDS011;41294;42.666;23.350;2022-08-19T10:26:24;5.97;;;3.78;;
55423;SDS011;41294;42.666;23.350;2022-08-19T10:28:51;4.00;;;3.70;;
55423;SDS011;41294;42.666;23.350;2022-08-19T10:31:18;4.47;;;4.07;;
55423;SDS011;41294;42.666;23.350;2022-08-19T10:33:47;4.75;;;4.30;;
55423;SDS011;41294;42.666;23.350;2022-08-19T10:36:14;6.18;;;4.00;;
55423;SDS011;41294;42.666;23.350;2022-08-19T10:38:42;4.60;;;4.13;;
55423;SDS011;41294;42.666;23.350;2022-08-19T10:41:18;5.63;;;4.10;;
55423;SDS011;41294;42.666;23.350;2022-08-19T10:43:47;6.28;;;4.18;;
55423;SDS011;41294;42.666;23.350;2022-08-19T10:46:14;5.55;;;4.28;;
55423;SDS011;41294;42.666;23.350;2022-08-19T10:48:40;7.00;;;4.57;;
55423;SDS011;41294;42.666;23.350;2022-08-19T10:51:07;5.50;;;3.92;;
55423;SDS011;41294;42.666;23.350;2022-08-19T10:53:52;3.78;;;3.47;;
55423;SDS011;41294;42.666;23.350;2022-08-19T10:56:18;4.85;;;3.95;;
55423;SDS011;41294;42.666;23.350;2022-08-19T10:59:02;5.75;;;4.30;;
55423;SDS011;41294;42.666;23.350;2022-08-19T11:01:29;6.07;;;4.20;;
55423;SDS011;41294;42.666;23.350;2022-08-19T11:03:56;5.05;;;4.32;;
55423;SDS011;41294;42.666;23.350;2022-08-19T11:06:22;4.15;;;3.75;;
55423;SDS011;41294;42.666;23.350;2022-08-19T11:08:54;4.72;;;4.32;;
55423;SDS011;41294;42.666;23.350;2022-08-19T11:11:20;5.88;;;4.10;;
55423;SDS011;41294;42.666;23.350;2022-08-19T11:13:46;6.10;;;4.15;;
55423;SDS011;41294;42.666;23.350;2022-08-19T11:16:16;5.18;;;4.20;;
55423;SDS011;41294;42.666;23.350;2022-08-19T11:18:45;8.05;;;4.20;;
55423;SDS011;41294;42.666;23.350;2022-08-19T11:23:53;7.25;;;4.57;;
55423;SDS011;41294;42.666;23.350;2022-08-19T11:26:23;6.70;;;4.05;;
55423;SDS011;41294;42.666;23.350;2022-08-19T11:28:50;4.30;;;3.90;;
55423;SDS011;41294;42.666;23.350;2022-08-19T11:31:19;4.45;;;4.05;;
55423;SDS011;41294;42.666;23.350;2022-08-19T11:33:46;5.70;;;3.88;;
55423;SDS011;41294;42.666;23.350;2022-08-19T11:36:12;5.45;;;4.60;;
55423;SDS011;41294;42.666;23.350;2022-08-19T11:38:38;5.60;;;3.97;;
55423;SDS011;41294;42.666;23.350;2022-08-19T11:41:05;4.60;;;4.20;;
55423;SDS011;41294;42.666;23.350;2022-08-19T11:43:35;4.00;;;3.70;;
55423;SDS011;41294;42.666;23.350;2022-08-19T11:46:08;4.30;;;3.90;;
55423;SDS011;41294;42.666;23.350;2022-08-19T11:48:35;4.97;;;4.03;;
55423;SDS011;41294;42.666;23.350;2022-08-19T11:51:05;6.88;;;4.40;;
55423;SDS011;41294;42.666;23.350;2022-08-19T11:53:33;6.07;;;4.15;;
55423;SDS011;41294;42.666;23.350;2022-08-19T11:55:59;4.50;;;4.10;;
55423;SDS011;41294;42.666;23.350;2022-08-19T11:58:24;6.47;;;4.25;;
55423;SDS011;41294;42.666;23.350;2022-08-19T12:00:50;5.20;;;4.05;;
55423;SDS011;41294;42.666;23.350;2022-08-19T12:03:16;5.72;;;4.50;;
55423;SDS011;41294;42.666;23.350;2022-08-19T12:05:44;5.03;;;4.43;;
55423;SDS011;41294;42.666;23.350;2022-08-19T12:08:11;5.13;;;4.60;;
55423;SDS011;41294;42.666;23.350;2022-08-19T12:10:38;5.20;;;4.53;;
55423;SDS011;41294;42.666;23.350;2022-08-19T12:13:04;6.65;;;4.43;;
55423;SDS011;41294;42.666;23.350;2022-08-19T12:15:29;7.57;;;4.00;;
55423;SDS011;41294;42.666;23.350;2022-08-19T12:17:56;8.48;;;4.28;;
55423;SDS011;41294;42.666;23.350;2022-08-19T12:20:22;6.30;;;4.60;;
55423;SDS011;41294;42.666;23.350;2022-08-19T12:22:49;4.70;;;4.22;;
55423;SDS011;41294;42.666;23.350;2022-08-19T12:25:16;6.38;;;4.57;;
55423;SDS011;41294;42.666;23.350;2022-08-19T12:27:42;6.75;;;4.78;;
55423;SDS011;41294;42.666;23.350;2022-08-19T12:30:11;5.53;;;4.50;;
55423;SDS011;41294;42.666;23.350;2022-08-19T12:32:38;6.13;;;4.55;;
55423;SDS011;41294;42.666;23.350;2022-08-19T12:35:04;5.25;;;4.15;;
55423;SDS011;41294;42.666;23.350;2022-08-19T12:37:30;5.63;;;4.50;;
55423;SDS011;41294;42.666;23.350;2022-08-19T12:39:57;4.55;;;4.07;;
55423;SDS011;41294;42.666;23.350;2022-08-19T12:42:23;6.32;;;4.50;;
55423;SDS011;41294;42.666;23.350;2022-08-19T12:44:49;4.82;;;4.20;;
55423;SDS011;41294;42.666;23.350;2022-08-19T12:47:16;7.93;;;5.00;;
55423;SDS011;41294;42.666;23.350;2022-08-19T12:49:42;8.70;;;4.82;;
55423;SDS011;41294;42.666;23.350;2022-08-19T12:52:09;7.32;;;4.40;;
55423;SDS011;41294;42.666;23.350;2022-08-19T12:54:35;6.43;;;4.57;;
55423;SDS011;41294;42.666;23.350;2022-08-19T12:57:08;6.10;;;4.93;;
55423;SDS011;41294;42.666;23.350;2022-08-19T12:59:35;5.18;;;4.68;;
55423;SDS011;41294;42.666;23.350;2022-08-19T13:02:03;6.55;;;4.10;;
55423;SDS011;41294;42.666;23.350;2022-08-19T13:04:31;9.95;;;4.57;;
55423;SDS011;41294;42.666;23.350;2022-08-19T13:06:57;7.90;;;4.50;;
55423;SDS011;41294;42.666;23.350;2022-08-19T13:09:23;6.28;;;4.32;;
55423;SDS011;41294;42.666;23.350;2022-08-19T13:11:49;7.00;;;4.40;;
55423;SDS011;41294;42.666;23.350;2022-08-19T13:14:14;6.00;;;4.32;;
55423;SDS011;41294;42.666;23.350;2022-08-19T13:16:40;9.95;;;4.40;;
55423;SDS011;41294;42.666;23.350;2022-08-19T13:19:06;7.38;;;4.38;;
55423;SDS011;41294;42.666;23.350;2022-08-19T13:21:32;7.20;;;4.53;;
55423;SDS011;41294;42.666;23.350;2022-08-19T13:23:58;6.32;;;4.85;;
55423;SDS011;41294;42.666;23.350;2022-08-19T13:26:23;6.30;;;4.55;;
55423;SDS011;41294;42.666;23.350;2022-08-19T13:28:49;9.18;;;4.35;;
55423;SDS011;41294;42.666;23.350;2022-08-19T13:31:33;7.60;;;4.45;;
55423;SDS011;41294;42.666;23.350;2022-08-19T13:34:24;6.22;;;4.60;;
55423;SDS011;41294;42.666;23.350;2022-08-19T13:36:59;6.45;;;4.40;;
55423;SDS011;41294;42.666;23.350;2022-08-19T13:39:27;5.10;;;4.60;;
55423;SDS011;41294;42.666;23.350;2022-08-19T13:41:54;5.55;;;4.82;;
55423;SDS011;41294;42.666;23.350;2022-08-19T13:44:19;6.70;;;4.53;;
55423;SDS011;41294;42.666;23.350;2022-08-19T13:46:46;6.38;;;4.50;;
55423;SDS011;41294;42.666;23.350;2022-08-19T13:49:13;7.80;;;4.50;;
55423;SDS011;41294;42.666;23.350;2022-08-19T13:51:40;5.10;;;4.07;;
55423;SDS011;41294;42.666;23.350;2022-08-19T13:54:07;5.78;;;4.40;;
55423;SDS011;41294;42.666;23.350;2022-08-19T13:56:33;6.47;;;4.50;;
55423;SDS011;41294;42.666;23.350;2022-08-19T13:59:00;6.13;;;4.47;;
55423;SDS011;41294;42.666;23.350;2022-08-19T14:01:25;5.47;;;4.40;;
55423;SDS011;41294;42.666;23.350;2022-08-19T14:03:51;7.75;;;4.75;;
55423;SDS011;41294;42.666;23.350;2022-08-19T14:06:17;5.53;;;4.65;;
55423;SDS011;41294;42.666;23.350;2022-08-19T14:08:43;6.45;;;4.60;;
55423;SDS011;41294;42.666;23.350;2022-08-19T14:11:09;8.35;;;4.75;;
55423;SDS011;41294;42.666;23.350;2022-08-19T14:13:35;5.53;;;4.35;;
55423;SDS011;41294;42.666;23.350;2022-08-19T14:16:01;6.40;;;4.60;;
55423;SDS011;41294;42.666;23.350;2022-08-19T14:18:32;7.38;;;4.50;;
55423;SDS011;41294;42.666;23.350;2022-08-19T14:20:57;10.60;;;5.18;;
55423;SDS011;41294;42.666;23.350;2022-08-19T14:23:23;10.45;;;4.80;;
55423;SDS011;41294;42.666;23.350;2022-08-19T14:25:48;5.70;;;4.50;;
55423;SDS011;41294;42.666;23.350;2022-08-19T14:28:13;5.60;;;4.60;;
55423;SDS011;41294;42.666;23.350;2022-08-19T14:30:39;5.68;;;4.80;;
55423;SDS011;41294;42.666;23.350;2022-08-19T14:33:05;5.90;;;4.68;;
55423;SDS011;41294;42.666;23.350;2022-08-19T14:35:32;5.53;;;5.03;;
55423;SDS011;41294;42.666;23.350;2022-08-19T14:37:59;8.00;;;4.55;;
55423;SDS011;41294;42.666;23.350;2022-08-19T14:40:27;8.35;;;4.68;;
55423;SDS011;41294;42.666;23.350;2022-08-19T14:42:58;6.57;;;4.47;;
55423;SDS011;41294;42.666;23.350;2022-08-19T14:45:38;5.13;;;4.60;;
55423;SDS011;41294;42.666;23.350;2022-08-19T14:48:04;9.38;;;5.03;;
55423;SDS011;41294;42.666;23.350;2022-08-19T14:50:32;9.82;;;4.88;;